createdAt,value
2023-03-05T00:01:28.963Z,68.35
2023-03-05T00:03:58.623Z,67.10
2023-03-05T00:06:31.625Z,69.30
2023-03-05T00:08:59.829Z,64.95
2023-03-05T00:11:30.334Z,65.85
2023-03-05T00:13:58.994Z,68.82
2023-03-05T00:16:27.902Z,62.03
2023-03-05T00:18:56.639Z,60.75
2023-03-05T00:21:36.655Z,62.90
2023-03-05T00:24:07.634Z,60.97
2023-03-05T00:26:37.054Z,60.55
2023-03-05T00:29:06.510Z,61.25
2023-03-05T00:31:36.516Z,60.20
2023-03-05T00:34:09.540Z,60.72
2023-03-05T00:36:44.214Z,61.15
2023-03-05T00:39:12.316Z,61.38
2023-03-05T00:41:40.405Z,61.42
2023-03-05T00:44:08.434Z,58.03
2023-03-05T00:46:36.566Z,59.58
2023-03-05T00:49:04.795Z,58.42
2023-03-05T00:51:32.284Z,61.92
2023-03-05T00:54:00.120Z,58.95
2023-03-05T00:56:27.878Z,60.45
2023-03-05T00:58:56.231Z,57.00
2023-03-05T01:01:24.469Z,56.13
2023-03-05T01:03:52.513Z,56.45
2023-03-05T01:06:20.017Z,56.95
2023-03-05T01:08:47.825Z,54.80
2023-03-05T01:11:15.257Z,51.47
2023-03-05T01:13:42.948Z,54.28
2023-03-05T01:16:10.953Z,53.33
2023-03-05T01:18:40.127Z,53.17
2023-03-05T01:21:09.054Z,53.00
2023-03-05T01:23:37.697Z,52.60
2023-03-05T01:26:05.875Z,55.67
2023-03-05T01:28:33.674Z,47.83
2023-03-05T01:31:01.108Z,48.38
2023-03-05T01:33:28.845Z,49.13
2023-03-05T01:35:56.391Z,47.33
2023-03-05T01:38:24.248Z,43.63
2023-03-05T01:40:51.733Z,45.35
2023-03-05T01:43:31.397Z,46.97
2023-03-05T01:46:38.580Z,46.15
2023-03-05T01:49:18.004Z,46.92
2023-03-05T01:51:56.639Z,48.35
2023-03-05T01:54:29.693Z,46.33
2023-03-05T01:56:59.144Z,44.60
2023-03-05T01:59:28.556Z,45.63
2023-03-05T02:01:58.261Z,41.58
2023-03-05T02:04:32.694Z,46.40
2023-03-05T02:07:00.368Z,45.80
2023-03-05T02:09:28.963Z,46.85
2023-03-05T02:11:57.529Z,47.45
2023-03-05T02:14:26.126Z,43.85
2023-03-05T02:16:53.592Z,44.90
2023-03-05T02:19:21.388Z,45.20
2023-03-05T02:21:50.740Z,41.55
2023-03-05T02:24:34.466Z,36.90
2023-03-05T02:27:03.127Z,36.63
2023-03-05T02:29:33.728Z,38.08
2023-03-05T02:32:01.963Z,36.80
2023-03-05T02:34:30.172Z,34.50
2023-03-05T02:36:58.201Z,31.38
2023-03-05T02:39:27.614Z,31.10
2023-03-05T02:41:55.077Z,29.40
2023-03-05T02:44:23.471Z,30.58
2023-03-05T02:46:50.932Z,30.88
2023-03-05T02:49:19.240Z,31.25
2023-03-05T02:51:46.655Z,31.05
2023-03-05T02:54:15.971Z,32.05
2023-03-05T02:56:50.789Z,30.40
2023-03-05T02:59:27.056Z,30.80
2023-03-05T03:01:59.465Z,30.58
2023-03-05T03:04:30.401Z,29.17
2023-03-05T03:06:57.796Z,29.95
2023-03-05T03:09:26.902Z,28.13
2023-03-05T03:11:54.468Z,27.45
2023-03-05T03:14:22.558Z,28.65
2023-03-05T03:16:50.596Z,33.60
2023-03-05T03:19:18.285Z,30.15
2023-03-05T03:21:45.676Z,35.72
2023-03-05T03:24:13.412Z,36.35
2023-03-05T03:26:40.925Z,36.55
2023-03-05T03:29:08.735Z,33.33
2023-03-05T03:31:36.208Z,33.50
2023-03-05T03:34:03.882Z,28.35
2023-03-05T03:36:32.288Z,25.50
2023-03-05T03:39:00.022Z,24.55
2023-03-05T03:41:27.313Z,26.98
2023-03-05T03:43:55.896Z,25.05
2023-03-05T03:46:23.418Z,26.20
2023-03-05T03:48:51.892Z,26.98
2023-03-05T03:51:19.280Z,24.95
2023-03-05T03:53:47.197Z,23.75
2023-03-05T03:56:15.589Z,25.02
2023-03-05T03:58:43.308Z,24.48
2023-03-05T04:01:10.933Z,23.63
2023-03-05T04:03:38.954Z,21.67
2023-03-05T04:06:07.262Z,19.73
2023-03-05T04:08:35.022Z,19.73
2023-03-05T04:11:03.063Z,17.75
2023-03-05T04:13:30.929Z,18.13
2023-03-05T04:15:58.473Z,18.23
2023-03-05T04:18:26.258Z,16.67
2023-03-05T04:20:53.857Z,17.67
2023-03-05T04:23:22.072Z,17.15
2023-03-05T04:25:49.395Z,18.05
2023-03-05T04:28:18.277Z,16.90
2023-03-05T04:30:45.584Z,15.60
2023-03-05T04:33:13.370Z,16.65
2023-03-05T04:35:40.744Z,16.52
2023-03-05T04:38:09.086Z,15.23
2023-03-05T04:40:36.746Z,15.40
2023-03-05T04:43:05.341Z,15.98
2023-03-05T04:45:33.670Z,14.80
2023-03-05T04:48:01.471Z,15.50
2023-03-05T04:50:28.965Z,15.65
2023-03-05T04:52:56.652Z,19.27
2023-03-05T04:55:24.192Z,20.35
2023-03-05T04:57:51.916Z,19.63
2023-03-05T05:00:20.161Z,15.48
2023-03-05T05:02:49.927Z,16.70
2023-03-05T05:05:20.501Z,18.88
2023-03-05T05:07:48.162Z,15.70
2023-03-05T05:10:16.538Z,15.52
2023-03-05T05:12:44.217Z,14.88
2023-03-05T05:15:13.623Z,16.58
2023-03-05T05:17:41.333Z,16.33
2023-03-05T05:20:11.672Z,17.38
2023-03-05T05:22:39.862Z,16.05
2023-03-05T05:25:08.072Z,16.73
2023-03-05T05:27:36.035Z,17.15
2023-03-05T05:30:04.405Z,16.13
2023-03-05T05:32:32.121Z,15.27
2023-03-05T05:35:00.056Z,16.15
2023-03-05T05:37:27.959Z,15.93
2023-03-05T05:39:55.409Z,15.77
2023-03-05T05:42:25.377Z,16.35
2023-03-05T05:44:53.574Z,18.00
2023-03-05T05:47:21.852Z,16.70
2023-03-05T05:49:51.763Z,16.23
2023-03-05T05:52:19.428Z,15.55
2023-03-05T05:54:46.894Z,16.55
2023-03-05T05:57:15.974Z,16.10
2023-03-05T05:59:43.343Z,16.65
2023-03-05T06:02:11.546Z,15.82
2023-03-05T06:04:40.442Z,13.30
2023-03-05T06:07:08.986Z,14.80
2023-03-05T06:09:36.995Z,13.73
2023-03-05T06:12:05.120Z,13.35
2023-03-05T06:14:32.625Z,13.77
2023-03-05T06:17:00.278Z,14.60
2023-03-05T06:19:27.730Z,14.10
2023-03-05T06:21:55.768Z,13.52
2023-03-05T06:24:23.490Z,12.95
2023-03-05T06:26:51.173Z,12.20
2023-03-05T06:29:18.708Z,11.73
2023-03-05T06:31:46.281Z,11.63
2023-03-05T06:34:13.555Z,11.73
2023-03-05T06:36:41.275Z,11.43
2023-03-05T06:39:08.773Z,12.30
2023-03-05T06:41:36.608Z,11.50
2023-03-05T06:44:04.552Z,11.63
2023-03-05T06:46:37.704Z,13.43
2023-03-05T06:49:05.802Z,17.08
2023-03-05T06:51:35.837Z,16.00
2023-03-05T06:54:06.619Z,15.15
2023-03-05T06:56:37.252Z,15.57
2023-03-05T06:59:05.816Z,16.05
2023-03-05T07:01:34.343Z,15.60
2023-03-05T07:04:03.280Z,16.80
2023-03-05T07:06:37.082Z,14.93
2023-03-05T07:09:07.379Z,17.52
2023-03-05T07:11:37.971Z,17.17
2023-03-05T07:14:05.424Z,16.58
2023-03-05T07:16:35.755Z,18.35
2023-03-05T07:19:07.648Z,16.88
2023-03-05T07:21:38.354Z,16.40
2023-03-05T07:24:09.593Z,18.25
2023-03-05T07:26:37.481Z,16.20
2023-03-05T07:29:04.959Z,16.45
2023-03-05T07:31:32.801Z,15.98
2023-03-05T07:34:02.666Z,15.75
2023-03-05T07:36:31.173Z,16.98
2023-03-05T07:38:58.536Z,25.38
2023-03-05T07:41:26.785Z,27.83
2023-03-05T07:43:55.491Z,29.45
2023-03-05T07:46:27.143Z,26.95
2023-03-05T07:48:58.788Z,18.33
2023-03-05T07:51:27.750Z,18.13
2023-03-05T07:53:58.532Z,17.40
2023-03-05T07:56:32.234Z,19.20
2023-03-05T07:59:00.791Z,18.90
2023-03-05T08:01:29.906Z,22.75
2023-03-05T08:03:57.411Z,17.60
2023-03-05T08:06:25.175Z,17.73
2023-03-05T08:08:52.516Z,16.20
2023-03-05T08:11:20.265Z,24.92
2023-03-05T08:13:47.680Z,18.40
2023-03-05T08:16:20.238Z,15.38
2023-03-05T08:18:49.389Z,16.40
2023-03-05T08:21:27.132Z,16.25
2023-03-05T08:23:54.693Z,18.52
2023-03-05T08:26:26.205Z,15.68
2023-03-05T08:28:54.242Z,18.52
2023-03-05T08:31:24.202Z,18.75
2023-03-05T08:33:53.401Z,16.98
2023-03-05T08:36:22.219Z,17.45
2023-03-05T08:39:13.204Z,14.95
2023-03-05T08:42:03.384Z,14.75
2023-03-05T08:44:37.325Z,16.05
2023-03-05T08:51:45.108Z,15.48
2023-03-05T08:54:20.277Z,14.35
2023-03-05T08:57:12.628Z,16.35
2023-03-05T09:00:10.500Z,15.18
2023-03-05T09:02:39.348Z,17.48
2023-03-05T09:05:07.786Z,16.30
2023-03-05T09:07:35.193Z,17.55
2023-03-05T09:10:02.988Z,17.58
2023-03-05T09:12:30.415Z,14.73
2023-03-05T09:14:58.088Z,16.13
2023-03-05T09:17:25.547Z,15.80
2023-03-05T09:19:54.423Z,17.63
2023-03-05T09:22:21.858Z,17.83
2023-03-05T09:24:49.720Z,18.50
2023-03-05T09:27:17.158Z,17.05
2023-03-05T09:29:44.973Z,19.95
2023-03-05T09:32:12.486Z,16.55
2023-03-05T09:34:40.321Z,16.63
2023-03-05T09:37:09.418Z,16.45
2023-03-05T09:39:37.137Z,15.65
2023-03-05T09:42:11.961Z,14.43
2023-03-05T09:44:59.388Z,15.85
2023-03-05T09:47:57.987Z,15.65
2023-03-05T09:50:35.525Z,15.18
2023-03-05T09:53:06.349Z,13.43
2023-03-05T09:55:42.499Z,14.25
2023-03-05T09:58:35.266Z,14.52
2023-03-05T10:01:11.659Z,12.35
2023-03-05T10:03:46.329Z,15.68
2023-03-05T10:09:03.050Z,14.73
2023-03-05T10:11:39.978Z,11.75
2023-03-05T10:14:14.064Z,11.52
2023-03-05T10:17:01.983Z,11.15
2023-03-05T10:19:56.086Z,13.50
2023-03-05T10:22:29.148Z,12.90
2023-03-05T10:25:35.291Z,19.75
2023-03-05T10:28:18.103Z,11.93
2023-03-05T10:31:08.351Z,13.45
2023-03-05T10:33:54.412Z,9.27
2023-03-05T10:36:39.052Z,10.40
2023-03-05T10:39:48.367Z,10.55
2023-03-05T10:42:47.129Z,10.10
2023-03-05T10:45:36.542Z,9.88
2023-03-05T10:49:30.145Z,8.45
2023-03-05T10:53:23.500Z,10.32
2023-03-05T10:56:09.347Z,8.57
2023-03-05T10:58:46.528Z,7.95
2023-03-05T11:01:54.036Z,7.45
2023-03-05T11:04:56.139Z,9.45
2023-03-05T11:07:36.686Z,8.02
2023-03-05T11:10:37.742Z,7.85
2023-03-05T11:13:46.792Z,7.18
2023-03-05T11:17:41.498Z,7.40
2023-03-05T11:20:43.006Z,7.93
2023-03-05T11:23:26.523Z,9.50
2023-03-05T11:26:44.159Z,21.08
2023-03-05T11:29:39.641Z,12.30
2023-03-05T11:32:32.186Z,10.43
2023-03-05T11:35:32.246Z,9.00
2023-03-05T11:39:00.890Z,10.55
2023-03-05T11:42:19.035Z,12.73
2023-03-05T11:45:14.624Z,11.32
2023-03-05T11:48:08.362Z,12.07
2023-03-05T11:51:08.396Z,9.73
2023-03-05T11:53:46.870Z,9.45
2023-03-05T11:56:28.415Z,9.55
2023-03-05T11:59:36.233Z,9.20
2023-03-05T12:02:53.087Z,8.25
2023-03-05T12:05:48.292Z,9.18
2023-03-05T12:08:36.022Z,9.15
2023-03-05T12:11:19.583Z,8.60
2023-03-05T12:21:32.234Z,7.72
2023-03-05T12:24:38.028Z,9.07
2023-03-05T12:28:04.867Z,8.68
2023-03-05T12:30:49.556Z,7.63
2023-03-05T12:33:47.329Z,7.10
2023-03-05T12:36:41.618Z,10.98
2023-03-05T12:39:41.706Z,9.63
2023-03-05T12:42:30.821Z,10.23
2023-03-05T12:45:16.260Z,10.55
2023-03-05T12:48:25.986Z,8.18
2023-03-05T12:51:04.756Z,8.43
2023-03-05T12:53:42.155Z,8.15
2023-03-05T12:56:27.988Z,8.60
2023-03-05T12:59:07.117Z,9.07
2023-03-05T13:02:32.967Z,9.18
2023-03-05T13:05:18.315Z,8.73
2023-03-05T13:07:47.306Z,8.57
2023-03-05T13:10:24.324Z,9.75
2023-03-05T13:12:54.338Z,9.35
2023-03-05T13:15:24.467Z,9.55
2023-03-05T13:18:03.640Z,8.63
2023-03-05T13:20:40.845Z,8.50
2023-03-05T13:23:29.152Z,9.30
2023-03-05T13:26:20.299Z,9.00
2023-03-05T13:29:08.623Z,9.77
2023-03-05T13:31:46.781Z,11.60
2023-03-05T13:34:47.618Z,12.90
2023-03-05T13:37:22.422Z,10.93
2023-03-05T13:40:01.498Z,11.40
2023-03-05T13:42:37.069Z,11.27
2023-03-05T13:45:21.495Z,11.48
2023-03-05T13:53:15.802Z,12.10
2023-03-05T13:55:43.769Z,11.50
2023-03-05T13:58:54.058Z,16.85
2023-03-05T14:01:33.040Z,13.07
2023-03-05T14:04:08.348Z,14.48
2023-03-05T14:06:42.677Z,12.25
2023-03-05T14:09:19.030Z,12.15
2023-03-05T14:12:21.648Z,10.68
2023-03-05T14:14:50.238Z,9.07
2023-03-05T14:17:38.812Z,10.02
2023-03-05T14:20:11.874Z,10.18
2023-03-05T14:22:45.766Z,11.88
2023-03-05T14:25:39.901Z,11.85
2023-03-05T14:28:26.321Z,9.75
2023-03-05T14:30:56.533Z,10.43
2023-03-05T14:33:29.908Z,16.08
2023-03-05T14:36:00.058Z,11.52
2023-03-05T14:38:33.866Z,11.55
2023-03-05T14:41:31.538Z,11.07
2023-03-05T14:43:59.534Z,10.45
2023-03-05T14:46:27.222Z,11.18
2023-03-05T14:48:55.040Z,10.98
2023-03-05T14:51:26.002Z,12.75
2023-03-05T14:53:59.269Z,13.35
2023-03-05T14:56:29.089Z,10.75
2023-03-05T14:58:59.952Z,11.73
2023-03-05T15:01:31.885Z,13.27
2023-03-05T15:04:33.370Z,14.77
2023-03-05T15:07:41.976Z,12.80
2023-03-05T15:11:06.280Z,10.52
2023-03-05T15:17:18.903Z,10.43
2023-03-05T15:19:57.262Z,12.07
2023-03-05T15:22:57.095Z,11.40
2023-03-05T15:25:30.100Z,22.52
2023-03-05T15:27:59.206Z,13.43
2023-03-05T15:30:32.527Z,11.70
2023-03-05T15:33:06.965Z,11.98
2023-03-05T15:35:34.499Z,11.23
2023-03-05T15:38:02.933Z,10.38
2023-03-05T15:40:30.807Z,10.30
2023-03-05T15:43:00.194Z,13.55
2023-03-05T15:45:31.673Z,12.07
2023-03-05T15:48:01.751Z,13.13
2023-03-05T15:50:29.601Z,13.23
2023-03-05T15:52:57.886Z,13.20
2023-03-05T15:55:25.281Z,13.07
2023-03-05T15:57:54.261Z,14.50
2023-03-05T16:00:34.746Z,13.30
2023-03-05T16:03:23.867Z,18.10
2023-03-05T16:05:52.906Z,34.33
2023-03-05T16:08:33.695Z,21.40
2023-03-05T16:11:11.453Z,21.13
2023-03-05T16:13:42.886Z,24.30
2023-03-05T16:16:26.138Z,22.05
2023-03-05T16:19:08.451Z,22.17
2023-03-05T16:21:44.741Z,19.55
2023-03-05T16:24:45.086Z,20.38
2023-03-05T16:27:22.282Z,19.08
2023-03-05T16:29:59.196Z,18.35
2023-03-05T16:32:30.329Z,17.92
2023-03-05T16:35:07.955Z,19.40
2023-03-05T16:37:36.926Z,23.20
2023-03-05T16:40:56.526Z,21.70
2023-03-05T16:43:26.681Z,23.23
2023-03-05T16:45:59.135Z,25.45
2023-03-05T16:48:29.205Z,24.35
2023-03-05T16:51:01.403Z,23.33
2023-03-05T16:53:31.756Z,21.58
2023-03-05T16:56:05.784Z,24.42
2023-03-05T16:58:34.738Z,23.55
2023-03-05T17:01:04.468Z,23.48
2023-03-05T17:03:32.078Z,27.17
2023-03-05T17:06:09.168Z,28.17
2023-03-05T17:08:38.959Z,28.45
2023-03-05T17:11:33.506Z,25.10
2023-03-05T17:14:04.195Z,21.77
2023-03-05T17:16:34.147Z,24.58
2023-03-05T17:19:03.101Z,29.90
2023-03-05T17:21:31.001Z,40.17
2023-03-05T17:24:04.263Z,28.98
2023-03-05T17:26:35.334Z,21.45
2023-03-05T17:29:11.101Z,28.65
2023-03-05T17:31:39.185Z,23.70
2023-03-05T17:34:06.525Z,28.08
2023-03-05T17:36:50.973Z,31.35
2023-03-05T17:39:19.173Z,27.67
2023-03-05T17:41:54.706Z,28.90
2023-03-05T17:44:28.575Z,19.73
2023-03-05T17:46:59.624Z,20.17
2023-03-05T17:49:30.781Z,20.38
2023-03-05T17:51:59.275Z,24.60
2023-03-05T17:54:28.613Z,27.67
2023-03-05T17:56:57.277Z,28.25
2023-03-05T17:59:28.329Z,29.60
2023-03-05T18:01:58.328Z,25.88
2023-03-05T18:04:25.869Z,28.15
2023-03-05T18:06:55.373Z,22.08
2023-03-05T18:09:23.959Z,28.05
2023-03-05T18:11:54.350Z,29.85
2023-03-05T18:14:23.328Z,29.40
2023-03-05T18:16:52.699Z,30.65
2023-03-05T18:19:51.364Z,25.38
2023-03-05T18:22:24.213Z,26.23
2023-03-05T18:24:52.846Z,24.25
2023-03-05T18:27:55.407Z,27.60
2023-03-05T18:30:42.555Z,29.90
2023-03-05T18:33:31.762Z,30.05
2023-03-05T18:36:14.607Z,30.00
2023-03-05T18:38:58.544Z,37.22
2023-03-05T18:45:07.479Z,46.55
2023-03-05T18:47:59.057Z,45.67
2023-03-05T18:50:55.262Z,46.45
2023-03-05T18:53:30.942Z,45.72
2023-03-05T18:56:01.866Z,40.58
2023-03-05T18:58:34.547Z,42.25
2023-03-05T19:01:09.534Z,39.08
2023-03-05T19:03:41.366Z,38.70
2023-03-05T19:06:11.789Z,33.13
2023-03-05T19:08:40.905Z,35.08
2023-03-05T19:11:20.372Z,34.47
2023-03-05T19:13:51.693Z,33.28
2023-03-05T19:16:30.560Z,30.02
2023-03-05T19:19:15.596Z,29.77
2023-03-05T19:21:48.985Z,30.75
2023-03-05T19:24:17.321Z,34.38
2023-03-05T19:26:48.132Z,31.20
2023-03-05T19:29:15.911Z,31.27
2023-03-05T19:31:45.614Z,33.67
2023-03-05T19:34:13.948Z,31.45
2023-03-05T19:36:41.879Z,31.77
2023-03-05T19:39:10.286Z,32.63
2023-03-05T19:41:41.183Z,34.05
2023-03-05T19:44:09.949Z,34.10
2023-03-05T19:46:47.153Z,30.42
2023-03-05T19:49:18.401Z,33.08
2023-03-05T19:51:47.293Z,33.00
2023-03-05T19:54:16.760Z,31.52
2023-03-05T19:56:46.075Z,31.70
2023-03-05T19:59:16.566Z,31.80
2023-03-05T20:01:46.069Z,31.50
2023-03-05T20:04:17.136Z,31.33
2023-03-05T20:06:44.932Z,36.80
2023-03-05T20:09:12.392Z,36.15
2023-03-05T20:11:40.624Z,35.17
2023-03-05T20:14:08.600Z,34.33
2023-03-05T20:16:38.072Z,36.72
2023-03-05T20:19:08.601Z,40.03
2023-03-05T20:21:40.827Z,49.53
2023-03-05T20:24:11.674Z,49.47
2023-03-05T20:26:41.292Z,50.22
2023-03-05T20:29:09.908Z,50.25
2023-03-05T20:31:38.211Z,49.38
2023-03-05T20:34:12.589Z,42.92
2023-03-05T20:39:08.748Z,41.25
2023-03-05T20:41:39.733Z,47.58
2023-03-05T20:44:11.529Z,42.17
2023-03-05T20:47:37.576Z,44.53
2023-03-05T20:50:16.767Z,45.53
2023-03-05T20:52:48.370Z,45.42
2023-03-05T20:55:15.874Z,41.00
2023-03-05T20:57:46.423Z,44.53
2023-03-05T21:00:15.009Z,51.78
2023-03-05T21:02:42.964Z,46.22
2023-03-05T21:05:10.481Z,45.08
2023-03-05T21:07:38.954Z,43.47
2023-03-05T21:10:06.744Z,43.95
2023-03-05T21:12:35.757Z,44.28
2023-03-05T21:15:04.988Z,44.60
2023-03-05T21:17:36.149Z,50.60
2023-03-05T21:20:07.385Z,43.30
2023-03-05T21:22:36.296Z,47.20
2023-03-05T21:25:25.046Z,40.47
2023-03-05T21:28:07.031Z,40.20
2023-03-05T21:30:49.253Z,41.10
2023-03-05T21:33:24.233Z,43.90
2023-03-05T21:35:54.683Z,46.60
2023-03-05T21:38:31.047Z,62.17
2023-03-05T21:40:59.313Z,45.17
2023-03-05T21:43:32.564Z,45.70
2023-03-05T21:46:08.838Z,48.28
2023-03-05T21:48:43.546Z,57.28
2023-03-05T21:51:49.042Z,55.28
2023-03-05T21:54:20.205Z,49.60
2023-03-05T21:56:47.602Z,56.20
2023-03-05T21:59:16.845Z,66.45
2023-03-05T22:01:50.354Z,63.90
2023-03-05T22:04:23.901Z,71.47
2023-03-05T22:07:06.585Z,174.13
2023-03-05T22:09:37.136Z,98.65
2023-03-05T22:12:32.877Z,84.95
2023-03-05T22:15:22.948Z,65.70
2023-03-05T22:17:51.999Z,63.63
2023-03-05T22:20:20.102Z,59.88
2023-03-05T22:22:47.762Z,57.97
2023-03-05T22:25:16.170Z,52.55
2023-03-05T22:27:44.990Z,47.10
2023-03-05T22:30:13.812Z,56.97
2023-03-05T22:32:42.412Z,63.28
2023-03-05T22:35:15.067Z,55.13
2023-03-05T22:37:44.068Z,54.80
2023-03-05T22:40:18.469Z,60.00
2023-03-05T22:42:46.335Z,55.92
2023-03-05T22:45:15.910Z,55.75
2023-03-05T22:47:43.639Z,48.78
2023-03-05T22:50:12.811Z,46.58
2023-03-05T22:52:46.836Z,47.40
2023-03-05T22:55:18.474Z,46.20
2023-03-05T22:57:46.477Z,51.63
2023-03-05T23:00:18.759Z,57.92
2023-03-05T23:02:46.456Z,59.00
2023-03-05T23:05:14.642Z,53.83
2023-03-05T23:07:43.054Z,56.60
2023-03-05T23:10:20.846Z,47.20
2023-03-05T23:12:52.226Z,41.45
2023-03-05T23:15:24.735Z,34.50
2023-03-05T23:17:52.557Z,33.45
2023-03-05T23:20:23.453Z,34.53
2023-03-05T23:22:56.402Z,42.15
2023-03-05T23:25:30.326Z,37.75
2023-03-05T23:27:59.093Z,39.40
2023-03-05T23:30:33.276Z,54.30
2023-03-05T23:33:13.758Z,56.53
2023-03-05T23:35:43.880Z,58.85
2023-03-05T23:38:14.682Z,58.42
2023-03-05T23:40:49.465Z,54.90
2023-03-05T23:43:25.779Z,56.58
2023-03-05T23:45:55.363Z,63.15
2023-03-05T23:48:26.536Z,64.82
2023-03-05T23:50:56.305Z,67.20
2023-03-05T23:53:33.756Z,45.88
2023-03-05T23:56:08.201Z,43.47
2023-03-05T23:58:36.371Z,40.45
